Time;durP1;ratioP1;P1;durP2;ratioP2;P2;SDS_P1;SDS_P2;PMS_P1;PMS_P2;Temp;Humidity;BMP_temperature;BMP_pressure;BME280_temperature;BME280_humidity;BME280_pressure;Samples;Min_cycle;Max_cycle;Signal;HPM_P1;HPM_P2
2021/11/06 00:00:05;;;;;;;25.50;5.10;;;;;;;10.18;79.93;102669.50;5013276;28;20065;-49
2021/11/06 00:02:30;;;;;;;17.90;4.32;;;;;;;10.18;80.06;102674.88;5028700;28;20022;-49
2021/11/06 00:04:56;;;;;;;21.02;5.35;;;;;;;10.19;79.88;102676.56;5031772;28;20404;-51
2021/11/06 00:07:21;;;;;;;26.05;6.63;;;;;;;10.21;80.06;102670.06;5033033;28;20069;-47
2021/11/06 00:09:46;;;;;;;18.90;5.13;;;;;;;10.21;80.09;102672.75;5032412;28;20104;-48
2021/11/06 00:12:12;;;;;;;25.35;5.47;;;;;;;10.23;79.88;102668.09;5031132;28;20029;-50
2021/11/06 00:14:37;;;;;;;21.88;4.95;;;;;;;10.24;79.92;102668.94;5018644;28;20053;-47
2021/11/06 00:17:03;;;;;;;16.35;4.80;;;;;;;10.23;79.74;102667.25;5024680;28;20025;-50
2021/11/06 00:19:28;;;;;;;21.60;5.15;;;;;;;10.23;79.98;102662.72;5032687;28;20029;-48
2021/11/06 00:21:54;;;;;;;17.30;4.97;;;;;;;10.23;79.78;102662.72;5032331;28;20029;-50
2021/11/06 00:24:19;;;;;;;21.92;6.18;;;;;;;10.22;80.10;102666.41;5021236;28;20050;-48
2021/11/06 00:26:49;;;;;;;22.50;5.32;;;;;;;10.21;79.71;102667.38;5021789;28;20075;-49
2021/11/06 00:29:18;;;;;;;14.15;5.20;;;;;;;10.21;80.09;102670.06;5032713;28;20045;-47
2021/11/06 00:31:46;;;;;;;17.45;5.78;;;;;;;10.21;80.25;102663.84;5032476;28;20029;-47
2021/11/06 00:34:11;;;;;;;32.40;6.00;;;;;;;10.21;80.14;102674.59;5036248;28;20520;-50
2021/11/06 00:36:37;;;;;;;33.67;6.15;;;;;;;10.20;80.22;102673.75;5018283;28;20065;-48
2021/11/06 00:39:03;;;;;;;21.35;5.13;;;;;;;10.19;80.23;102664.00;5011206;28;20096;-47
2021/11/06 00:41:28;;;;;;;24.63;6.50;;;;;;;10.22;80.22;102669.09;5020225;28;20095;-48
2021/11/06 00:43:54;;;;;;;24.50;5.70;;;;;;;10.20;80.12;102673.75;5024906;28;20025;-47
2021/11/06 00:46:19;;;;;;;22.05;5.70;;;;;;;10.17;80.09;102665.94;5012371;28;20037;-47
2021/11/06 00:48:44;;;;;;;21.33;6.80;;;;;;;10.12;79.26;102668.19;5011293;28;20030;-47
2021/11/06 00:51:10;;;;;;;23.02;6.10;;;;;;;10.04;79.52;102660.78;5012408;28;20026;-47
2021/11/06 00:53:35;;;;;;;23.17;5.88;;;;;;;9.95;79.83;102668.81;5017797;28;20033;-48
2021/11/06 00:56:00;;;;;;;20.60;6.28;;;;;;;9.91;80.24;102662.84;5031533;28;20030;-47
2021/11/06 00:58:26;;;;;;;22.10;6.55;;;;;;;9.79;80.45;102662.06;5016533;28;20120;-47
2021/11/06 01:00:52;;;;;;;24.95;6.80;;;;;;;9.67;81.03;102655.91;5016307;28;20030;-47
2021/11/06 01:03:17;;;;;;;30.13;6.38;;;;;;;9.64;81.37;102660.72;5016890;28;20524;-48
2021/11/06 01:05:42;;;;;;;20.63;6.82;;;;;;;9.55;81.68;102656.94;5035777;28;20083;-47
2021/11/06 01:08:08;;;;;;;22.67;6.95;;;;;;;9.49;81.53;102656.63;5035848;28;20037;-47
2021/11/06 01:10:33;;;;;;;20.73;7.00;;;;;;;9.43;82.26;102642.72;5020481;28;20330;-47
2021/11/06 01:12:59;;;;;;;21.83;6.03;;;;;;;9.40;82.53;102652.88;5035644;28;20392;-47
2021/11/06 01:15:24;;;;;;;20.55;7.22;;;;;;;9.40;82.96;102656.44;5035620;28;20126;-47
2021/11/06 01:17:49;;;;;;;30.70;7.78;;;;;;;9.35;82.65;102647.91;5021432;28;20037;-48
2021/11/06 01:20:15;;;;;;;22.98;7.15;;;;;;;9.26;83.32;102654.03;5016017;28;20061;-49
2021/11/06 01:22:41;;;;;;;22.45;6.95;;;;;;;9.20;83.71;102649.19;5026888;28;20037;-47
2021/11/06 01:25:07;;;;;;;26.23;8.00;;;;;;;9.10;83.72;102656.31;5035884;28;20046;-48
2021/11/06 01:27:34;;;;;;;29.30;8.75;;;;;;;8.93;84.56;102649.66;5034511;28;20026;-50
2021/11/06 01:29:59;;;;;;;27.00;8.00;;;;;;;8.93;84.89;102655.03;5034171;28;20087;-50
2021/11/06 01:32:25;;;;;;;26.23;8.60;;;;;;;8.84;85.41;102648.56;5034694;28;20025;-47
2021/11/06 01:34:50;;;;;;;26.38;8.60;;;;;;;8.83;85.42;102649.56;5031713;28;20034;-49
2021/11/06 01:37:15;;;;;;;31.33;8.90;;;;;;;8.83;85.56;102646.88;5014429;28;20036;-49
2021/11/06 01:39:41;;;;;;;31.55;8.88;;;;;;;8.82;85.28;102649.66;5014258;28;20429;-47
2021/11/06 01:42:06;;;;;;;24.30;8.48;;;;;;;8.83;84.74;102646.88;5015591;28;20339;-47
2021/11/06 01:44:32;;;;;;;25.17;8.82;;;;;;;8.76;85.73;102640.28;5015463;28;20034;-48
2021/11/06 01:46:58;;;;;;;29.10;9.45;;;;;;;8.76;85.34;102648.34;5015562;28;20066;-49
2021/11/06 01:49:23;;;;;;;36.90;10.05;;;;;;;8.73;85.74;102645.91;5020344;28;20436;-48
2021/11/06 01:51:50;;;;;;;29.52;9.25;;;;;;;8.73;85.54;102645.91;5034012;28;20057;-50
2021/11/06 01:54:15;;;;;;;28.77;8.88;;;;;;;8.77;85.55;102642.88;5034900;28;20026;-50
2021/11/06 01:56:42;;;;;;;20.23;8.52;;;;;;;8.79;86.04;102645.41;5030391;28;20020;-47
2021/11/06 01:59:08;;;;;;;36.47;10.27;;;;;;;8.84;86.03;102642.34;5017754;28;20463;-50
2021/11/06 02:01:35;;;;;;;31.52;10.52;;;;;;;8.88;85.98;102643.81;5029710;28;20104;-47
2021/11/06 02:04:00;;;;;;;28.50;9.93;;;;;;;8.91;86.01;102641.72;5012745;28;20553;-49
2021/11/06 02:06:25;;;;;;;35.50;9.15;;;;;;;8.94;86.56;102636.09;5013895;28;20038;-47
2021/11/06 02:08:51;;;;;;;35.67;9.63;;;;;;;8.99;86.00;102635.72;5011933;28;20018;-49
2021/11/06 02:11:16;;;;;;;33.65;9.60;;;;;;;8.99;85.75;102633.88;5013487;28;20037;-49
2021/11/06 02:13:42;;;;;;;29.52;10.43;;;;;;;8.99;85.88;102628.50;5013788;28;20022;-47
2021/11/06 02:16:07;;;;;;;36.13;11.32;;;;;;;9.01;86.11;102633.75;5016003;28;20026;-47
2021/11/06 02:18:32;;;;;;;30.30;11.68;;;;;;;9.01;86.23;102626.56;5014655;28;20054;-48
2021/11/06 02:21:05;;;;;;;35.20;10.55;;;;;;;9.01;86.21;102626.56;5013929;28;20030;-46
2021/11/06 02:23:35;;;;;;;38.38;10.15;;;;;;;9.01;86.36;102623.03;5033704;28;20553;-50
2021/11/06 02:26:01;;;;;;;28.70;10.32;;;;;;;9.00;86.61;102635.59;5033695;28;20498;-48
2021/11/06 02:28:26;;;;;;;25.23;10.95;;;;;;;9.02;86.51;102633.63;5034271;28;20014;-47
2021/11/06 02:30:51;;;;;;;25.10;11.70;;;;;;;9.04;86.62;102636.19;5016999;28;20061;-47
2021/11/06 02:33:17;;;;;;;30.60;12.65;;;;;;;9.02;86.79;102636.31;5014638;28;20029;-46
2021/11/06 02:35:42;;;;;;;40.33;11.63;;;;;;;9.01;87.39;102631.09;5019778;28;20446;-47
2021/11/06 02:38:09;;;;;;;34.17;11.40;;;;;;;9.04;87.09;102630.81;5030846;28;20128;-48
2021/11/06 02:40:34;;;;;;;36.40;11.82;;;;;;;9.08;87.18;102634.09;5026319;28;20445;-48
2021/11/06 02:43:00;;;;;;;34.35;12.73;;;;;;;9.11;87.12;102637.41;5033942;28;20117;-48
2021/11/06 02:45:26;;;;;;;41.60;13.55;;;;;;;9.06;87.63;102636.91;5033874;28;20397;-49
2021/11/06 02:47:51;;;;;;;41.55;13.10;;;;;;;9.09;88.16;102633.13;5033971;28;20147;-48
2021/11/06 02:50:17;;;;;;;39.95;13.25;;;;;;;9.12;88.41;102635.56;5025709;28;20034;-47
2021/11/06 02:52:42;;;;;;;40.70;13.10;;;;;;;9.03;89.04;102629.13;5018341;28;20469;-47
2021/11/06 02:55:08;;;;;;;41.72;15.02;;;;;;;9.03;89.63;102618.38;5033882;28;20025;-48
2021/11/06 02:57:33;;;;;;;47.55;15.25;;;;;;;8.94;89.87;102619.13;5034092;28;20464;-47
2021/11/06 03:00:00;;;;;;;42.20;15.20;;;;;;;8.94;90.49;102628.03;5030606;28;20044;-49
2021/11/06 03:02:25;;;;;;;42.55;14.70;;;;;;;8.96;90.32;102625.25;5034069;28;20034;-50
2021/11/06 03:04:50;;;;;;;44.78;14.68;;;;;;;8.95;90.39;102624.38;5033726;28;20488;-48
2021/11/06 03:07:17;;;;;;;44.63;16.17;;;;;;;8.91;90.43;102622.94;5031834;28;20115;-50
2021/11/06 03:09:42;;;;;;;44.45;15.45;;;;;;;8.91;90.11;102630.13;5033594;28;20030;-47
2021/11/06 03:12:13;;;;;;;45.42;15.07;;;;;;;8.91;90.75;102625.59;5033880;28;20056;-47
2021/11/06 03:14:39;;;;;;;39.10;14.82;;;;;;;8.99;90.10;102631.19;5033660;28;20028;-47
2021/11/06 03:17:05;;;;;;;42.17;15.57;;;;;;;8.98;90.03;102624.13;5015549;28;20029;-48
2021/11/06 03:19:31;;;;;;;42.83;15.82;;;;;;;8.93;89.92;102623.66;5014010;28;20030;-47
2021/11/06 03:21:56;;;;;;;56.60;15.77;;;;;;;8.97;90.44;102625.09;5033383;28;20112;-50
2021/11/06 03:24:22;;;;;;;43.60;15.27;;;;;;;8.98;90.41;102615.22;5033115;28;20045;-48
2021/11/06 03:26:47;;;;;;;49.03;16.00;;;;;;;8.98;90.26;102609.84;5033152;28;20034;-47
2021/11/06 03:29:13;;;;;;;51.00;15.93;;;;;;;9.01;90.95;102612.28;5033293;28;20026;-48
2021/11/06 03:31:38;;;;;;;57.65;17.70;;;;;;;9.04;90.77;102609.34;5014082;28;20021;-47
2021/11/06 03:34:03;;;;;;;44.97;17.02;;;;;;;9.06;90.74;102622.63;5013416;28;20446;-49
2021/11/06 03:36:29;;;;;;;50.67;17.80;;;;;;;9.11;90.00;102609.66;5022694;28;20742;-48
2021/11/06 03:38:54;;;;;;;64.72;17.45;;;;;;;9.13;90.34;102615.75;5033021;28;20025;-47
2021/11/06 03:41:20;;;;;;;49.97;16.90;;;;;;;9.12;90.43;102608.69;5022929;28;20025;-48
2021/11/06 03:43:45;;;;;;;46.42;15.95;;;;;;;9.16;90.03;102607.44;5044185;28;20512;-48
2021/11/06 03:46:10;;;;;;;46.63;18.02;;;;;;;9.19;90.13;102604.50;5033086;28;20431;-48
2021/11/06 03:48:36;;;;;;;50.85;18.20;;;;;;;9.21;90.00;102602.53;5032986;28;20104;-50
2021/11/06 03:51:01;;;;;;;52.20;18.40;;;;;;;9.19;90.64;102607.19;5032382;28;20079;-47
2021/11/06 03:53:27;;;;;;;65.28;18.35;;;;;;;9.19;90.17;102599.16;5016970;28;20033;-48
2021/11/06 03:55:52;;;;;;;50.13;17.98;;;;;;;9.20;90.54;102614.25;5012113;28;20081;-48
2021/11/06 03:58:18;;;;;;;56.72;19.17;;;;;;;9.21;90.46;102602.53;5013427;28;20022;-49
2021/11/06 04:00:43;;;;;;;51.17;19.23;;;;;;;9.22;90.31;102606.94;5014362;28;20040;-48
2021/11/06 04:03:08;;;;;;;54.03;19.52;;;;;;;9.24;90.63;102602.25;5013601;28;20455;-48
2021/11/06 04:05:34;;;;;;;58.70;19.02;;;;;;;9.25;90.42;102600.44;5015158;28;20026;-47
2021/11/06 04:07:59;;;;;;;55.17;19.88;;;;;;;9.27;90.47;102593.97;5032243;28;20033;-48
2021/11/06 04:10:25;;;;;;;54.50;19.30;;;;;;;9.31;90.43;102598.06;5025737;28;20018;-47
2021/11/06 04:12:50;;;;;;;52.85;19.60;;;;;;;9.30;90.03;102601.75;5011643;28;20029;-47
2021/11/06 04:15:16;;;;;;;48.00;18.52;;;;;;;9.32;90.36;102602.50;5020295;28;20080;-50
2021/11/06 04:17:41;;;;;;;55.67;19.73;;;;;;;9.32;90.13;102597.13;5012942;28;20075;-48
2021/11/06 04:20:07;;;;;;;56.90;20.70;;;;;;;9.35;90.37;102606.75;5016236;28;20092;-48
2021/11/06 04:22:34;;;;;;;53.08;21.13;;;;;;;9.38;90.12;102607.34;5014311;28;20469;-47
2021/11/06 04:24:59;;;;;;;60.15;19.45;;;;;;;9.40;89.90;102616.13;5012579;28;20050;-48
2021/11/06 04:27:25;;;;;;;54.25;20.42;;;;;;;9.42;89.81;102614.13;5012324;28;20034;-50
2021/11/06 04:29:50;;;;;;;46.22;19.70;;;;;;;9.47;89.81;102616.44;5012817;28;20056;-48
2021/11/06 04:32:15;;;;;;;67.72;21.33;;;;;;;9.46;89.69;102614.75;5032306;28;20435;-49
2021/11/06 04:34:41;;;;;;;48.95;18.73;;;;;;;9.48;89.45;102614.59;5029704;28;20544;-47
2021/11/06 04:37:06;;;;;;;49.05;20.42;;;;;;;9.42;88.92;102615.97;5012481;28;20026;-47
2021/11/06 04:39:32;;;;;;;57.67;21.30;;;;;;;9.40;89.29;102620.63;5012201;28;20053;-49
2021/11/06 04:41:58;;;;;;;59.13;20.27;;;;;;;9.39;89.24;102613.56;5012571;28;20473;-50
2021/11/06 04:44:23;;;;;;;59.78;20.88;;;;;;;9.38;89.31;102611.88;5012406;28;20109;-48
2021/11/06 04:46:49;;;;;;;54.38;21.08;;;;;;;9.42;89.35;102606.06;5012352;28;20129;-47
2021/11/06 04:49:14;;;;;;;53.88;19.83;;;;;;;9.42;89.06;102608.75;4996054;28;20092;-47
2021/11/06 04:51:39;;;;;;;54.95;20.45;;;;;;;9.42;89.31;102607.91;5030863;28;20033;-48
2021/11/06 04:54:04;;;;;;;58.00;20.08;;;;;;;9.40;89.11;102604.50;5032089;28;20056;-50
2021/11/06 04:56:30;;;;;;;53.92;19.42;;;;;;;9.42;88.73;102603.38;5032092;28;20018;-48
2021/11/06 04:58:55;;;;;;;54.83;19.25;;;;;;;9.44;89.08;102596.03;5021005;28;20029;-50
2021/11/06 05:01:20;;;;;;;58.45;19.15;;;;;;;9.37;88.70;102602.94;5029417;28;20025;-47
2021/11/06 05:03:46;;;;;;;53.25;19.85;;;;;;;9.34;89.23;102599.66;5030669;28;20029;-48
2021/11/06 05:06:11;;;;;;;61.85;20.70;;;;;;;9.34;88.86;102596.97;5032016;28;20052;-49
2021/11/06 05:08:37;;;;;;;50.40;19.65;;;;;;;9.33;89.03;102589.91;5030747;28;20083;-47
2021/11/06 05:11:02;;;;;;;58.50;21.00;;;;;;;9.28;88.78;102597.50;5031230;28;20063;-49
2021/11/06 05:13:27;;;;;;;67.22;20.17;;;;;;;9.24;88.58;102583.47;5023702;28;20443;-47
2021/11/06 05:15:53;;;;;;;62.40;19.73;;;;;;;9.24;88.72;102599.56;5010955;28;20049;-48
2021/11/06 05:18:19;;;;;;;59.25;20.58;;;;;;;9.21;88.62;102597.16;5012317;28;20030;-49
2021/11/06 05:20:45;;;;;;;50.47;20.25;;;;;;;9.21;88.56;102599.84;5013559;28;20373;-49
2021/11/06 05:23:13;;;;;;;56.60;20.65;;;;;;;9.23;88.71;102604.09;5011064;28;20053;-47
2021/11/06 05:25:39;;;;;;;53.95;20.88;;;;;;;9.20;88.68;102609.75;5012270;28;20469;-49
2021/11/06 05:28:05;;;;;;;54.83;21.23;;;;;;;9.17;88.89;102612.69;5012052;28;20079;-49
2021/11/06 05:30:30;;;;;;;51.55;20.35;;;;;;;9.17;88.86;102606.47;5013209;28;20037;-48
2021/11/06 05:32:56;;;;;;;52.47;21.63;;;;;;;9.17;89.04;102607.31;5013293;28;20037;-47
2021/11/06 05:35:21;;;;;;;61.92;21.85;;;;;;;9.15;88.69;102600.38;5031612;28;20028;-48
2021/11/06 05:37:46;;;;;;;56.30;21.67;;;;;;;9.16;88.69;102596.69;5031736;28;20029;-49
2021/11/06 05:40:12;;;;;;;51.60;19.70;;;;;;;9.15;88.64;102597.69;5033562;28;20400;-46
2021/11/06 05:42:38;;;;;;;45.33;20.33;;;;;;;9.13;88.66;102611.22;5035475;28;20029;-48
2021/11/06 05:45:04;;;;;;;62.72;20.77;;;;;;;9.13;88.69;102607.69;5035432;28;20406;-47
2021/11/06 05:47:30;;;;;;;60.50;21.20;;;;;;;9.10;88.53;102602.59;5035278;28;20029;-48
2021/11/06 05:49:56;;;;;;;55.70;22.02;;;;;;;9.08;88.63;102604.53;5018797;28;20021;-48
2021/11/06 05:52:21;;;;;;;50.20;20.83;;;;;;;9.05;88.79;102604.81;5017816;28;20061;-50
2021/11/06 05:54:47;;;;;;;56.03;20.42;;;;;;;9.09;88.75;102603.59;5034127;28;20333;-47
2021/11/06 05:57:12;;;;;;;60.25;21.75;;;;;;;9.06;88.61;102593.06;5029067;28;20412;-47
2021/11/06 05:59:37;;;;;;;50.72;20.48;;;;;;;9.05;88.47;102586.00;5027259;28;20033;-47
2021/11/06 06:02:03;;;;;;;55.15;22.20;;;;;;;9.05;88.83;102594.06;5037492;28;20464;-48
2021/11/06 06:04:28;;;;;;;54.22;21.58;;;;;;;9.06;88.95;102601.13;5032704;28;20037;-47
2021/11/06 06:06:53;;;;;;;57.72;21.10;;;;;;;9.05;88.54;102591.38;5016421;28;20030;-47
2021/11/06 06:09:19;;;;;;;61.45;21.45;;;;;;;9.04;88.92;102587.84;5012418;28;20128;-47
2021/11/06 06:11:45;;;;;;;58.85;22.55;;;;;;;9.04;88.88;102587.84;5012312;28;20118;-47
2021/11/06 06:14:10;;;;;;;58.03;21.90;;;;;;;9.05;88.94;102576.09;5020158;28;20484;-48
2021/11/06 06:16:36;;;;;;;66.97;23.63;;;;;;;9.08;88.77;102583.06;5031755;28;20120;-49
2021/11/06 06:19:01;;;;;;;51.80;21.67;;;;;;;9.10;88.86;102581.09;5031886;28;20026;-47
2021/11/06 06:21:26;;;;;;;50.58;22.30;;;;;;;9.07;88.97;102586.75;5031960;28;20104;-48
2021/11/06 06:23:52;;;;;;;55.05;21.77;;;;;;;9.10;88.77;102581.94;5031788;28;20064;-48
2021/11/06 06:26:17;;;;;;;59.53;22.92;;;;;;;9.10;88.77;102581.94;5030484;28;20033;-47
2021/11/06 06:28:43;;;;;;;52.33;21.30;;;;;;;9.11;89.08;102583.66;5032757;28;20033;-47
2021/11/06 06:31:08;;;;;;;53.53;21.25;;;;;;;9.10;88.81;102586.47;5042717;28;20045;-47
2021/11/06 06:33:34;;;;;;;54.83;21.13;;;;;;;9.08;88.58;102594.66;5031446;28;20107;-46
2021/11/06 06:35:59;;;;;;;42.67;20.85;;;;;;;9.06;88.95;102593.94;5031397;28;20037;-48
2021/11/06 06:38:26;;;;;;;54.92;21.67;;;;;;;9.06;88.50;102595.75;5031539;28;20689;-48
2021/11/06 06:40:51;;;;;;;54.25;22.00;;;;;;;9.02;88.92;102596.03;5031445;28;20032;-47
2021/11/06 06:43:17;;;;;;;49.50;20.63;;;;;;;9.03;89.01;102591.53;5038695;28;20029;-47
2021/11/06 06:45:42;;;;;;;50.90;20.75;;;;;;;9.06;88.90;102585.88;5036077;28;20159;-48
2021/11/06 06:48:07;;;;;;;53.92;21.20;;;;;;;9.06;88.72;102595.75;5031587;28;20104;-47
2021/11/06 06:50:33;;;;;;;48.75;21.25;;;;;;;9.08;88.66;102588.44;5030761;28;20392;-48
2021/11/06 06:52:58;;;;;;;46.67;20.88;;;;;;;9.11;88.96;102594.41;5029760;28;20052;-47
2021/11/06 06:55:23;;;;;;;57.10;21.10;;;;;;;9.14;88.16;102588.78;5031226;28;20029;-50
2021/11/06 06:57:49;;;;;;;39.17;19.13;;;;;;;9.15;88.53;102589.63;5029885;28;20087;-49
2021/11/06 07:00:15;;;;;;;45.63;20.55;;;;;;;9.16;88.30;102594.00;5031602;28;20120;-46
2021/11/06 07:02:41;;;;;;;51.08;20.17;;;;;;;9.19;88.28;102589.25;5030995;28;20476;-46
2021/11/06 07:05:07;;;;;;;54.47;22.17;;;;;;;9.20;88.48;102592.78;5027623;28;20080;-48
2021/11/06 07:07:32;;;;;;;48.22;20.33;;;;;;;9.22;88.67;102590.81;5032919;28;20442;-47
2021/11/06 07:09:58;;;;;;;42.28;19.45;;;;;;;9.23;88.18;102593.34;5033762;28;20057;-48
2021/11/06 07:12:26;;;;;;;49.33;18.55;;;;;;;9.23;88.67;102592.50;5032669;28;20064;-48
2021/11/06 07:14:52;;;;;;;52.03;20.35;;;;;;;9.23;88.52;102597.88;5033966;28;20032;-47
2021/11/06 07:17:17;;;;;;;48.15;18.60;;;;;;;9.23;88.38;102592.50;5033973;28;20389;-48
2021/11/06 07:19:42;;;;;;;43.88;18.88;;;;;;;9.28;88.20;102594.81;5033886;28;20022;-47
2021/11/06 07:22:08;;;;;;;40.65;17.67;;;;;;;9.30;88.47;102598.22;5033763;28;20389;-48
2021/11/06 07:24:35;;;;;;;39.60;18.23;;;;;;;9.28;88.02;102601.03;5033680;28;20061;-48
2021/11/06 07:27:00;;;;;;;41.50;17.50;;;;;;;9.30;87.63;102595.53;5033947;28;20029;-50
2021/11/06 07:29:26;;;;;;;48.78;17.23;;;;;;;9.30;87.72;102596.38;5033483;28;20079;-51
2021/11/06 07:31:51;;;;;;;37.67;16.92;;;;;;;9.33;87.70;102592.59;5033474;28;20421;-47
2021/11/06 07:34:16;;;;;;;40.58;17.05;;;;;;;9.36;87.57;102603.06;5032049;28;20390;-48
2021/11/06 07:36:42;;;;;;;41.60;16.50;;;;;;;9.37;87.18;102596.69;5033392;28;20037;-48
2021/11/06 07:39:07;;;;;;;41.08;16.35;;;;;;;9.36;87.06;102595.84;5033283;28;20026;-50
2021/11/06 07:41:33;;;;;;;44.90;17.50;;;;;;;9.35;87.02;102596.84;5032715;28;20032;-47
2021/11/06 07:43:58;;;;;;;40.53;15.23;;;;;;;9.38;86.59;102587.69;5015478;28;20028;-47
2021/11/06 09:18:37;;;;;;;23.20;8.52;;;;;;;9.88;83.28;102577.91;5031322;27;1935799;-47
2021/11/06 09:21:02;;;;;;;18.13;7.60;;;;;;;9.89;83.34;102579.59;5068183;28;20029;-47
2021/11/06 09:23:29;;;;;;;28.75;8.18;;;;;;;9.86;83.40;102570.94;5076781;28;20649;-48
2021/11/06 09:25:56;;;;;;;26.67;7.77;;;;;;;9.87;83.18;102569.97;5085718;28;20040;-47
2021/11/06 09:28:21;;;;;;;21.75;7.70;;;;;;;9.94;83.34;102579.19;5069420;28;20056;-48
2021/11/06 09:30:46;;;;;;;20.38;7.88;;;;;;;9.94;83.21;102565.75;5085468;28;20060;-50
2021/11/06 09:33:12;;;;;;;26.90;8.80;;;;;;;10.00;83.22;102564.34;5082411;28;20097;-47
2021/11/06 09:35:38;;;;;;;32.30;8.82;;;;;;;10.02;82.61;102559.69;5084275;28;20052;-49
2021/11/06 09:38:03;;;;;;;19.85;8.23;;;;;;;10.02;82.69;102557.00;5083867;28;20050;-48
2021/11/06 09:40:28;;;;;;;22.13;8.82;;;;;;;10.09;82.71;102558.16;5084282;28;20032;-50
2021/11/06 09:42:54;;;;;;;20.38;8.27;;;;;;;10.10;82.40;102557.16;5084470;28;20024;-48
2021/11/06 09:45:19;;;;;;;28.67;8.02;;;;;;;10.10;82.22;102557.16;5089118;28;20036;-49
2021/11/06 09:47:45;;;;;;;20.25;7.80;;;;;;;10.09;82.68;102550.09;5088189;28;20343;-48
2021/11/06 09:50:15;;;;;;;25.02;8.13;;;;;;;10.18;82.57;102562.72;5085496;28;20025;-50
2021/11/06 09:52:41;;;;;;;16.33;7.05;;;;;;;10.19;82.01;102561.75;5086305;28;20402;-49
2021/11/06 09:55:07;;;;;;;22.92;7.40;;;;;;;10.16;82.08;102572.75;5049445;28;20051;-48
2021/11/06 09:57:33;;;;;;;24.45;7.68;;;;;;;10.15;81.98;102568.38;5084521;28;20497;-49
2021/11/06 09:59:58;;;;;;;29.63;8.13;;;;;;;10.13;81.98;102556.88;5084845;28;20039;-51
2021/11/06 10:02:24;;;;;;;22.00;8.02;;;;;;;10.06;81.86;102559.28;5084179;28;20028;-51
2021/11/06 10:04:50;;;;;;;21.25;7.30;;;;;;;10.04;82.33;102571.16;5073345;28;20032;-48
2021/11/06 10:07:18;;;;;;;31.52;8.23;;;;;;;10.01;82.02;102571.44;5063207;28;20048;-51
2021/11/06 10:09:58;;;;;;;29.30;7.07;;;;;;;9.98;82.11;102555.56;5087094;28;20486;-51
2021/11/06 10:12:25;;;;;;;18.20;7.60;;;;;;;9.96;82.09;102565.63;5074601;28;20064;-49
2021/11/06 10:15:06;;;;;;;27.80;8.40;;;;;;;9.94;82.02;102554.16;5080561;28;20031;-49
2021/11/06 10:17:34;;;;;;;23.35;8.30;;;;;;;9.99;81.94;102551.91;5064960;28;20536;-49
2021/11/06 10:20:26;;;;;;;21.10;9.32;;;;;;;9.97;82.04;102553.88;5065425;28;20024;-51
2021/11/06 10:22:53;;;;;;;28.75;8.27;;;;;;;9.94;82.04;102546.06;5065340;28;20439;-48
2021/11/06 10:25:21;;;;;;;25.83;8.70;;;;;;;9.94;82.11;102555.00;5067717;28;20437;-49
2021/11/06 10:27:51;;;;;;;19.55;8.93;;;;;;;10.00;82.15;102548.22;5083388;28;20483;-50
2021/11/06 10:30:24;;;;;;;21.70;8.43;;;;;;;10.03;82.01;102553.31;5068424;28;20432;-51
2021/11/06 10:32:57;;;;;;;24.27;8.85;;;;;;;10.04;81.69;102544.28;5071896;28;20029;-50
2021/11/06 10:35:25;;;;;;;31.00;8.52;;;;;;;10.14;81.64;102546.97;5051667;28;20556;-48
2021/11/06 10:38:10;;;;;;;21.65;8.60;;;;;;;10.27;81.61;102555.69;5052808;28;20108;-50
2021/11/06 10:40:52;;;;;;;20.10;8.70;;;;;;;10.33;80.93;102556.00;5042089;28;20065;-48
2021/11/06 10:43:20;;;;;;;15.35;7.60;;;;;;;10.44;80.64;102551.47;5037590;28;20041;-47
2021/11/06 10:45:53;;;;;;;20.10;8.73;;;;;;;10.55;80.53;102544.13;5063005;28;20048;-46
2021/11/06 10:48:23;;;;;;;28.77;8.45;;;;;;;10.68;80.07;102549.22;5056889;28;20051;-48
2021/11/06 10:50:53;;;;;;;20.33;7.60;;;;;;;10.75;79.44;102542.28;5057021;28;20480;-46
2021/11/06 10:53:34;;;;;;;17.63;7.10;;;;;;;10.75;79.47;102539.59;5054225;28;20122;-51
2021/11/06 10:56:05;;;;;;;20.58;7.95;;;;;;;10.85;79.75;102533.34;5074398;28;20052;-49
2021/11/06 10:58:32;;;;;;;18.50;7.00;;;;;;;10.94;79.25;102532.50;5074481;28;20061;-50
2021/11/06 11:01:01;;;;;;;19.05;7.65;;;;;;;10.98;79.33;102523.16;5064676;28;20047;-49
2021/11/06 11:03:29;;;;;;;19.75;6.82;;;;;;;10.97;78.89;102524.13;5056228;28;20357;-47
2021/11/06 11:05:56;;;;;;;28.15;7.35;;;;;;;11.01;79.39;102520.19;5067657;28;20047;-48
2021/11/06 11:08:22;;;;;;;22.17;7.65;;;;;;;11.00;79.13;102510.38;5060784;28;20086;-48
2021/11/06 11:10:48;;;;;;;23.55;7.60;;;;;;;11.13;78.62;102515.47;5049829;28;20497;-49
2021/11/06 11:13:15;;;;;;;31.02;8.98;;;;;;;11.02;79.23;102503.00;5060672;28;20159;-52
2021/11/06 11:15:43;;;;;;;21.52;7.53;;;;;;;11.05;79.28;102505.41;5070296;28;20112;-50
2021/11/06 11:18:28;;;;;;;18.88;7.65;;;;;;;10.95;79.55;102497.34;5075404;28;20388;-51
2021/11/06 11:20:54;;;;;;;21.55;7.63;;;;;;;10.92;79.84;102488.69;5056883;28;20020;-47
2021/11/06 11:23:22;;;;;;;23.75;7.88;;;;;;;10.94;80.25;102486.72;5073994;28;20028;-47
2021/11/06 11:25:47;;;;;;;26.17;7.65;;;;;;;10.91;80.19;102484.31;5073831;28;20471;-48
2021/11/06 11:28:13;;;;;;;19.38;7.90;;;;;;;10.98;80.22;102477.38;5054710;28;20039;-48
2021/11/06 11:30:39;;;;;;;21.38;7.90;;;;;;;11.12;80.09;102482.28;5053821;28;20028;-50
2021/11/06 11:33:05;;;;;;;22.00;8.73;;;;;;;11.09;79.76;102471.81;5035929;28;20018;-51
2021/11/06 11:35:30;;;;;;;27.77;8.77;;;;;;;11.05;80.31;102465.00;5053657;28;20071;-49
2021/11/06 11:37:58;;;;;;;28.38;8.27;;;;;;;11.04;80.21;102463.31;5035745;28;20025;-49
2021/11/06 11:40:28;;;;;;;26.75;8.18;;;;;;;11.03;80.57;102461.59;5052620;28;20020;-51
2021/11/06 11:43:41;;;;;;;24.27;8.32;;;;;;;10.99;80.21;102457.50;5053940;28;20419;-52
2021/11/06 11:46:10;;;;;;;24.35;8.50;;;;;;;10.96;81.04;102447.03;5031563;28;20041;-50
2021/11/06 11:48:36;;;;;;;16.77;7.90;;;;;;;11.01;81.03;102452.81;5053647;28;20104;-49
2021/11/06 11:51:04;;;;;;;19.85;8.73;;;;;;;10.98;80.75;102443.19;5035582;28;20040;-50
2021/11/06 11:53:34;;;;;;;;;;;;;;;10.93;80.86;102452.69;5054047;28;20021;-46
2021/11/06 11:56:05;;;;;;;20.27;8.55;;;;;;;10.88;81.46;102446.91;5053265;28;19908;-49
2021/11/06 11:58:40;;;;;;;18.92;9.05;;;;;;;10.81;81.62;102457.38;5053151;28;20033;-49
2021/11/06 12:01:07;;;;;;;29.33;10.00;;;;;;;10.79;81.54;102445.06;5034871;28;20111;-46
2021/11/06 12:03:43;;;;;;;21.17;9.13;;;;;;;10.79;81.62;102437.81;5035069;28;20028;-49
2021/11/06 12:06:29;;;;;;;29.60;9.30;;;;;;;10.81;81.86;102435.00;5053382;28;20025;-50
2021/11/06 12:09:19;;;;;;;19.65;8.52;;;;;;;10.83;82.00;102419.53;5053304;28;20398;-46
2021/11/06 12:11:49;;;;;;;22.70;8.05;;;;;;;10.89;82.20;102410.88;5033841;28;20033;-48
2021/11/06 12:14:29;;;;;;;25.17;8.05;;;;;;;10.92;82.21;102410.56;5031705;28;20026;-50
2021/11/06 12:17:03;;;;;;;26.60;7.90;;;;;;;10.95;82.37;102410.28;5032681;28;20481;-51
2021/11/06 12:19:50;;;;;;;25.73;7.75;;;;;;;11.00;81.70;102410.69;5043135;28;20032;-48
2021/11/06 12:22:30;;;;;;;27.10;8.63;;;;;;;10.99;81.67;102400.91;5018534;28;20037;-48
2021/11/06 12:25:17;;;;;;;29.23;7.85;;;;;;;11.04;81.50;102401.34;5034740;28;20460;-47
2021/11/06 12:30:37;;;;;;;25.88;7.05;;;;;;;11.00;81.86;102391.84;5034690;28;20518;-50
2021/11/06 12:33:06;;;;;;;19.35;6.55;;;;;;;10.99;81.85;102379.38;5052953;28;20064;-48
2021/11/06 12:35:31;;;;;;;21.75;7.40;;;;;;;11.03;81.61;102378.06;5052991;28;20070;-49
2021/11/06 12:38:00;;;;;;;29.25;8.32;;;;;;;10.94;82.20;102387.88;5035546;28;20029;-50
2021/11/06 12:40:37;;;;;;;21.35;7.00;;;;;;;10.93;82.20;102374.59;5053993;28;20379;-47
2021/11/06 12:43:06;;;;;;;30.85;7.63;;;;;;;10.96;82.32;102376.97;5054437;28;20033;-49
2021/11/06 12:45:32;;;;;;;27.67;7.28;;;;;;;10.99;82.20;102372.13;5018848;28;20518;-48
2021/11/06 12:48:16;;;;;;;21.35;6.88;;;;;;;11.03;82.15;102369.97;5053160;28;20075;-49
2021/11/06 12:50:46;;;;;;;28.10;6.93;;;;;;;11.03;81.90;102369.97;5052525;28;20120;-47
2021/11/06 12:53:23;;;;;;;27.95;7.07;;;;;;;11.03;82.12;102369.97;5034664;28;20033;-49